Terminal Aerodrome Forecast
Issued by NWS

Home | Current Version | Previous Version | Text Only | Print | Product List | Glossary On
Versions: 1 2 3 4 5 6 7 8 9 10 11 12 13 14 15
000
FTAK31 PAJN 231700
TAFAWG
TAF
PAWG 231740Z 2318/2418 32006KT P6SM SCT040 BKN060
     FM240000 29005KT P6SM BKN050 BKN100
     FM240300 VRB04KT P6SM SCT050 BKN150
     FM240600 VRB03KT P6SM BKN040 OVC080
     FM240900 00000KT P6SM OVC050
     FM241500 VRB03KT P6SM VCSH SCT020 BKN040 OVC060
      AMD LTD TO CLD VIS AND WIND 2406/2415=

USA.gov is the U.S. government's official web portal to all federal, state and local government web resources and services.